createdAt,value
2019-06-07T16:42:48.927Z,48.15
2019-06-07T16:43:52.463Z,48.89
2019-06-07T16:44:55.804Z,48.89
2019-06-07T16:46:00.577Z,49.68
2019-06-07T16:47:07.366Z,49.97
2019-06-07T16:48:11.462Z,50.11
2019-06-07T16:49:14.749Z,51.10
2019-06-07T16:50:22.583Z,51.95
2019-06-07T16:51:27.491Z,53.58
2019-06-07T16:52:31.190Z,52.96
2019-06-07T16:53:38.255Z,52.96
2019-06-07T16:54:43.593Z,54.31
2019-06-07T16:55:46.834Z,54.22
2019-06-07T16:56:51.386Z,54.92
2019-06-07T16:57:55.116Z,55.56
2019-06-07T16:59:01.871Z,55.56
2019-06-07T17:00:05.209Z,57.02
2019-06-07T17:01:08.982Z,60.64
2019-06-07T17:02:12.359Z,61.71
2019-06-07T17:03:16.279Z,62.04
2019-06-07T17:04:19.499Z,63.14
2019-06-07T17:05:23.065Z,64.06
2019-06-07T17:06:26.656Z,65.68
2019-06-07T17:07:30.303Z,65.02
2019-06-07T17:08:33.229Z,65.02
2019-06-07T17:09:40.068Z,64.40
2019-06-07T17:10:44.210Z,67.43
2019-06-07T17:11:52.389Z,67.70
2019-06-07T17:12:57.000Z,67.70
2019-06-07T17:14:03.856Z,67.37
2019-06-07T17:15:09.166Z,67.76
2019-06-07T17:16:12.843Z,67.28
2019-06-07T17:17:15.926Z,67.28
2019-06-07T17:18:22.409Z,68.54
2019-06-07T17:19:25.550Z,67.81
2019-06-07T17:20:32.064Z,68.52
2019-06-07T17:21:35.086Z,68.57
2019-06-07T17:22:42.035Z,69.00
2019-06-07T17:23:45.687Z,69.76
2019-06-07T17:24:49.940Z,69.76
2019-06-07T17:25:54.860Z,71.43
2019-06-07T17:27:09.611Z,71.44
2019-06-07T17:28:20.554Z,71.44
2019-06-07T17:29:31.306Z,73.84
2019-06-07T17:30:34.594Z,73.84
2019-06-07T17:31:46.466Z,72.80
2019-06-07T17:32:59.198Z,70.40
2019-06-07T17:34:00.839Z,69.79
2019-06-07T17:35:19.457Z,69.90
2019-06-07T17:36:28.961Z,69.90
2019-06-07T17:37:34.659Z,70.48
2019-06-07T17:38:40.352Z,70.39
2019-06-07T17:39:43.377Z,70.39
2019-06-07T17:40:49.214Z,70.71
2019-06-07T17:42:01.691Z,70.71
2019-06-07T17:43:00.535Z,68.82
2019-06-07T17:44:09.225Z,69.89
2019-06-07T17:45:12.632Z,72.60
2019-06-07T17:46:22.560Z,71.30
2019-06-07T17:47:26.087Z,70.68
2019-06-07T17:48:30.786Z,70.08
2019-06-07T17:49:36.709Z,72.60
2019-06-07T17:50:39.385Z,71.20
2019-06-07T17:51:44.134Z,70.24
2019-06-07T17:52:47.999Z,72.72
2019-06-07T17:53:52.135Z,69.60
2019-06-07T17:54:55.713Z,69.61
2019-06-07T17:56:01.893Z,73.36
2019-06-07T17:57:04.721Z,73.36
2019-06-07T17:58:13.093Z,71.36
2019-06-07T17:59:15.798Z,70.23
2019-06-07T18:00:29.052Z,70.93
2019-06-07T18:01:41.016Z,71.27
2019-06-07T18:02:42.657Z,70.14
2019-06-07T18:03:49.178Z,69.77
2019-06-07T18:04:53.656Z,69.23
2019-06-07T18:05:59.105Z,69.23
2019-06-07T18:07:04.004Z,66.84
2019-06-07T18:08:11.991Z,68.30
2019-06-07T18:09:15.513Z,69.29
2019-06-07T18:10:19.666Z,66.80
2019-06-07T18:11:28.022Z,68.40
2019-06-07T18:12:35.259Z,69.02
2019-06-07T18:13:41.149Z,67.91
2019-06-07T18:14:44.519Z,69.26
2019-06-07T18:15:56.737Z,69.26
2019-06-07T18:17:06.327Z,68.40
2019-06-07T18:18:09.996Z,68.40
2019-06-07T18:19:12.929Z,68.29
2019-06-07T18:20:18.359Z,69.18
2019-06-07T18:21:25.461Z,68.61
2019-06-07T18:22:37.747Z,68.61
2019-06-07T18:23:41.449Z,69.47
2019-06-07T18:24:48.438Z,69.24
2019-06-07T18:25:52.533Z,68.62
2019-06-07T18:26:56.464Z,68.39
2019-06-07T18:28:02.316Z,68.39
2019-06-07T18:29:08.573Z,68.79
2019-06-07T18:30:18.490Z,69.96
2019-06-07T18:31:26.346Z,69.99
2019-06-07T18:32:30.861Z,69.69
2019-06-07T18:33:35.256Z,71.43
2019-06-07T18:34:39.852Z,70.65
2019-06-07T18:35:43.392Z,70.49
2019-06-07T18:36:46.951Z,70.81
2019-06-07T18:37:51.172Z,69.28
2019-06-07T18:38:55.084Z,69.54
2019-06-07T18:40:04.771Z,69.54
2019-06-07T18:41:07.592Z,71.06
2019-06-07T18:42:11.366Z,71.05
2019-06-07T18:43:14.234Z,71.05
2019-06-07T18:44:21.803Z,70.08
2019-06-07T18:45:26.821Z,69.85
2019-06-07T18:46:30.651Z,68.15
2019-06-07T18:47:36.194Z,70.50
2019-06-07T18:48:42.066Z,70.21
2019-06-07T18:49:44.959Z,70.21
2019-06-07T18:50:48.663Z,70.93
2019-06-07T18:52:10.655Z,70.73
2019-06-07T18:53:13.503Z,69.61
2019-06-07T18:54:16.827Z,69.25
2019-06-07T18:55:19.789Z,69.25
2019-06-07T18:56:26.540Z,68.37
2019-06-07T18:57:32.366Z,68.37
2019-06-07T18:58:37.980Z,66.81
2019-06-07T18:59:41.082Z,66.49
2019-06-07T19:00:44.336Z,67.67
2019-06-07T19:01:50.032Z,67.69
2019-06-07T19:02:54.007Z,68.17
2019-06-07T19:04:01.905Z,68.17
2019-06-07T19:05:07.833Z,66.49
2019-06-07T19:06:15.296Z,68.24
2019-06-07T19:07:19.741Z,65.36
2019-06-07T19:08:22.536Z,68.39
2019-06-07T19:09:28.585Z,68.39
2019-06-07T19:10:36.118Z,68.60
2019-06-07T19:11:39.676Z,68.60
2019-06-07T19:12:42.359Z,65.95
2019-06-07T19:13:46.088Z,67.87
2019-06-07T19:14:51.656Z,67.15
2019-06-07T19:15:55.528Z,67.15
2019-06-07T19:16:59.857Z,67.41
2019-06-07T19:18:03.139Z,65.05
2019-06-07T19:19:13.176Z,65.07
2019-06-07T19:20:15.321Z,65.99
2019-06-07T19:21:18.371Z,67.31
2019-06-07T19:25:39.190Z,67.17
2019-06-07T19:26:45.254Z,67.94
2019-06-07T19:27:48.071Z,68.59
2019-06-07T19:28:52.501Z,67.52
2019-06-07T19:29:55.261Z,67.22
2019-06-07T19:31:01.390Z,67.57
2019-06-07T19:32:11.181Z,68.55
2019-06-07T19:33:17.164Z,69.26
2019-06-07T19:34:21.470Z,69.27
2019-06-07T19:35:24.683Z,70.42
2019-06-07T19:36:47.812Z,70.01
2019-06-07T19:37:33.426Z,70.01
2019-06-07T19:38:36.703Z,71.91
2019-06-07T19:39:42.009Z,71.40
2019-06-07T19:40:49.362Z,72.50
2019-06-07T19:41:52.328Z,70.96
2019-06-07T19:42:56.474Z,72.05
2019-06-07T19:44:00.398Z,72.35
2019-06-07T19:45:28.523Z,72.89
2019-06-07T19:46:09.718Z,72.94
2019-06-07T19:47:13.518Z,72.38
2019-06-07T19:48:17.312Z,72.34
2019-06-07T19:49:20.469Z,72.20
2019-06-07T19:50:23.937Z,73.71
2019-06-07T19:51:28.913Z,74.28
2019-06-07T19:52:32.731Z,74.28
2019-06-07T19:53:35.593Z,75.05
2019-06-07T19:54:42.539Z,73.72
2019-06-07T19:55:45.598Z,74.77
2019-06-07T19:56:49.155Z,74.91
2019-06-07T19:58:00.014Z,74.91
2019-06-07T19:59:04.281Z,75.08
2019-06-07T20:00:14.026Z,75.32
2019-06-07T20:01:15.022Z,75.32
2019-06-07T20:02:18.611Z,76.75
2019-06-07T20:03:32.324Z,76.21
2019-06-07T20:04:27.011Z,75.49
2019-06-07T20:05:33.863Z,75.22
2019-06-07T20:06:37.682Z,75.05
2019-06-07T20:07:41.202Z,74.11
2019-06-07T20:09:01.321Z,74.29
2019-06-07T20:09:56.878Z,74.06
2019-06-07T20:11:00.368Z,74.06
2019-06-07T20:12:06.916Z,73.68
2019-06-07T20:13:28.781Z,73.31
2019-06-07T20:14:32.250Z,73.84
2019-06-07T20:15:35.168Z,74.11
2019-06-07T20:16:39.243Z,74.11
2019-06-07T20:17:42.803Z,74.54
2019-06-07T20:18:46.687Z,72.55
2019-06-07T20:19:51.043Z,72.89
2019-06-07T20:20:54.474Z,72.40
2019-06-07T20:22:01.024Z,71.84
2019-06-07T20:23:05.237Z,71.37
2019-06-07T20:24:24.726Z,70.44
2019-06-07T20:25:14.750Z,71.18
2019-06-07T20:26:19.136Z,70.45
2019-06-07T20:27:24.146Z,71.64
2019-06-07T20:28:26.896Z,70.69
2019-06-07T20:29:32.272Z,71.82
2019-06-07T20:30:37.847Z,72.17
2019-06-07T20:31:42.317Z,72.92
2019-06-07T20:32:57.771Z,73.50
2019-06-07T20:35:38.266Z,71.81
2019-06-07T20:36:45.976Z,72.74
2019-06-07T20:37:49.344Z,72.49
2019-06-07T20:38:53.378Z,72.46
2019-06-07T20:40:21.786Z,72.96
2019-06-07T20:41:09.730Z,73.20
2019-06-07T20:42:12.534Z,72.42
2019-06-07T20:43:19.000Z,72.37
2019-06-07T20:44:23.145Z,72.07
2019-06-07T20:45:33.811Z,72.07
2019-06-07T20:46:33.864Z,72.31
2019-06-07T20:47:46.712Z,71.89
2019-06-07T20:48:51.228Z,71.89
2019-06-07T20:49:54.538Z,72.46
2019-06-07T20:50:59.338Z,72.11
2019-06-07T20:52:06.730Z,72.11
2019-06-07T20:53:12.766Z,72.35
2019-06-07T20:54:16.407Z,73.02
2019-06-07T20:55:21.231Z,73.57
2019-06-07T20:56:29.295Z,73.32
2019-06-07T20:57:34.391Z,72.98
2019-06-07T20:58:38.297Z,72.98
2019-06-07T20:59:40.966Z,72.59
2019-06-07T21:00:44.384Z,72.59
2019-06-07T21:01:47.622Z,72.74
2019-06-07T21:02:50.946Z,72.29
2019-06-07T21:03:54.399Z,73.07
2019-06-07T21:04:59.348Z,72.67
2019-06-07T21:06:03.425Z,72.25
2019-06-07T21:07:08.157Z,72.06
2019-06-07T21:08:14.237Z,72.39
2019-06-07T21:09:17.780Z,72.71
2019-06-07T21:10:33.347Z,72.55
2019-06-07T21:11:36.676Z,72.57
2019-06-07T21:12:39.354Z,72.98
2019-06-07T21:13:42.661Z,73.21
2019-06-07T21:14:47.341Z,73.08
2019-06-07T21:15:50.697Z,72.74
2019-06-07T21:16:54.142Z,72.74
2019-06-07T21:17:57.571Z,72.98
2019-06-07T21:19:00.362Z,73.56
2019-06-07T21:20:05.994Z,73.16
2019-06-07T21:21:08.652Z,73.05
2019-06-07T21:22:16.628Z,73.05
2019-06-07T21:23:19.773Z,73.31
2019-06-07T21:24:25.966Z,72.44
2019-06-07T21:25:31.466Z,72.41
2019-06-07T21:26:34.114Z,72.56
2019-06-07T21:27:38.622Z,73.51
2019-06-07T21:28:44.122Z,73.69
2019-06-07T21:29:47.065Z,73.22
2019-06-07T21:30:51.504Z,73.22
2019-06-07T21:31:54.289Z,73.31
2019-06-07T21:32:57.682Z,75.12
2019-06-07T21:34:01.365Z,73.95
2019-06-07T21:35:05.892Z,74.04
2019-06-07T21:36:09.777Z,72.72
2019-06-07T21:37:16.098Z,72.18
2019-06-07T21:38:19.044Z,72.84
2019-06-07T21:39:22.265Z,72.71
2019-06-07T21:40:25.055Z,71.78
2019-06-07T21:41:33.014Z,72.18
2019-06-07T21:42:35.801Z,72.62
2019-06-07T21:43:39.078Z,72.44
2019-06-07T21:44:41.699Z,72.73
2019-06-07T21:45:45.118Z,72.09
2019-06-07T21:46:47.927Z,72.09
2019-06-07T21:47:51.273Z,72.19
2019-06-07T21:48:54.377Z,72.19
2019-06-07T21:49:57.617Z,72.48
2019-06-07T21:51:00.509Z,72.42
2019-06-07T21:52:04.361Z,72.42
2019-06-07T21:53:13.548Z,72.22
2019-06-07T21:54:16.902Z,72.22
2019-06-07T21:55:19.723Z,72.54
2019-06-07T21:56:23.122Z,72.45
2019-06-07T21:57:27.276Z,72.37
2019-06-07T21:58:30.748Z,72.56
2019-06-07T21:59:39.295Z,72.62
2019-06-07T22:00:44.438Z,72.62
2019-06-07T22:01:47.280Z,71.72
2019-06-07T22:02:50.743Z,71.80
2019-06-07T22:03:53.780Z,71.62
2019-06-07T22:05:03.328Z,71.40
2019-06-07T22:06:08.039Z,72.37
2019-06-07T22:07:11.922Z,72.79
2019-06-07T22:08:16.083Z,72.79
2019-06-07T22:09:28.630Z,71.79
2019-06-07T22:10:32.199Z,72.50
2019-06-07T22:11:35.408Z,71.87
2019-06-07T22:12:38.213Z,71.59
2019-06-07T22:13:45.304Z,71.60
2019-06-07T22:14:47.968Z,71.60
2019-06-07T22:15:51.359Z,71.02
2019-06-07T22:16:54.424Z,71.02
2019-06-07T22:17:58.310Z,71.47
2019-06-07T22:19:02.376Z,71.60
2019-06-07T22:20:06.381Z,71.76
2019-06-07T22:21:10.612Z,71.63
2019-06-07T22:22:14.870Z,71.87
2019-06-07T22:23:20.834Z,71.87
2019-06-07T22:24:24.163Z,72.13
2019-06-07T22:25:26.856Z,71.91
2019-06-07T22:26:30.347Z,71.69
2019-06-07T22:27:34.989Z,72.10
2019-06-07T22:28:38.419Z,73.11
